Time;durP1;ratioP1;P1;durP2;ratioP2;P2;SDS_P1;SDS_P2;PMS_P1;PMS_P2;Temp;Humidity;BMP_temperature;BMP_pressure;BME280_temperature;BME280_humidity;BME280_pressure;Samples;Min_cycle;Max_cycle;Signal;HPM_P1;HPM_P2
2022/09/27 00:01:30;;;;;;;3.07;1.73;;;;;;;15.61;59.40;97012.88;6978595;28;20215;-79
2022/09/27 00:04:55;;;;;;;1.53;1.47;;;;;;;15.17;60.10;97001.09;6980544;28;20208;-79
2022/09/27 00:08:18;;;;;;;1.53;1.43;;;;;;;15.16;60.44;97002.19;6987240;28;20320;-79
2022/09/27 00:11:41;;;;;;;2.53;1.60;;;;;;;15.39;60.33;96993.44;6988368;28;20207;-79
2022/09/27 00:15:04;;;;;;;1.47;1.33;;;;;;;15.34;59.97;96998.09;6988302;28;20597;-79
2022/09/27 00:18:26;;;;;;;1.43;1.33;;;;;;;15.20;60.54;96986.16;6988006;28;20276;-79
2022/09/27 00:21:49;;;;;;;2.07;1.60;;;;;;;15.12;60.97;96981.31;6980203;28;20219;-82
2022/09/27 00:25:11;;;;;;;1.60;1.50;;;;;;;15.15;60.47;96961.75;6980062;28;20267;-81
2022/09/27 00:28:33;;;;;;;1.43;1.43;;;;;;;15.58;59.94;96986.25;6976803;28;20225;-82
2022/09/27 00:31:55;;;;;;;1.50;1.40;;;;;;;15.29;60.63;96968.19;6977877;28;20566;-78
2022/09/27 00:35:17;;;;;;;2.40;1.43;;;;;;;15.58;60.05;96971.88;6977453;28;20234;-78
2022/09/27 00:38:41;;;;;;;2.17;1.50;;;;;;;15.12;61.15;96973.16;6976763;28;20234;-79
2022/09/27 00:42:03;;;;;;;2.33;1.60;;;;;;;14.80;62.21;96949.13;6977555;28;20253;-79
2022/09/27 00:45:24;;;;;;;1.40;1.40;;;;;;;15.17;61.90;96971.22;6976804;28;20582;-79
2022/09/27 00:48:47;;;;;;;2.23;1.50;;;;;;;15.08;62.09;96970.19;6976363;28;20226;-81
2022/09/27 00:52:11;;;;;;;1.63;1.20;;;;;;;15.17;62.08;96962.28;6977121;28;20195;-82
2022/09/27 00:55:36;;;;;;;1.60;1.40;;;;;;;15.02;62.23;96957.75;6977045;28;20223;-81
2022/09/27 00:59:03;;;;;;;1.57;1.40;;;;;;;14.92;62.16;96957.78;6976578;28;20230;-82
2022/09/27 01:02:24;;;;;;;2.20;1.60;;;;;;;15.46;61.01;96957.81;6975848;28;20217;-82
2022/09/27 01:05:46;;;;;;;2.73;1.40;;;;;;;14.97;61.95;96946.06;6977160;28;20187;-82
2022/09/27 01:09:09;;;;;;;1.70;1.47;;;;;;;15.32;60.64;96930.47;6976737;28;20257;-82
2022/09/27 01:12:41;;;;;;;2.63;1.40;;;;;;;15.31;60.78;96949.72;6977333;28;20207;-82
2022/09/27 01:16:11;;;;;;;1.47;1.40;;;;;;;15.50;60.72;96958.88;6976090;28;20210;-81
2022/09/27 01:20:01;;;;;;;2.00;1.40;;;;;;;15.26;61.40;96960.59;6975638;28;20229;-82
2022/09/27 01:23:43;;;;;;;1.30;1.20;;;;;;;15.31;60.68;96957.88;6976147;28;20601;-82
2022/09/27 01:27:36;;;;;;;1.77;1.30;;;;;;;14.70;63.02;96964.63;7003757;28;20226;-82
2022/09/27 01:31:02;;;;;;;1.10;1.10;;;;;;;15.37;60.47;96948.63;7004483;28;20191;-82
2022/09/27 01:34:28;;;;;;;1.33;1.23;;;;;;;14.79;61.55;96958.34;7004380;28;20216;-82
2022/09/27 01:37:54;;;;;;;1.30;1.30;;;;;;;14.67;62.07;96944.28;7007756;28;20229;-83
2022/09/27 01:41:25;;;;;;;1.10;1.10;;;;;;;15.18;61.23;96955.75;7009844;28;20207;-79
2022/09/27 01:44:50;;;;;;;2.43;1.30;;;;;;;15.24;61.03;96954.66;7003361;28;20658;-79
2022/09/27 01:48:16;;;;;;;1.20;1.20;;;;;;;15.42;60.53;96943.19;7003260;28;20223;-79
2022/09/27 01:51:41;;;;;;;1.50;1.40;;;;;;;15.45;59.63;96953.50;7003228;28;20196;-80
2022/09/27 01:55:05;;;;;;;3.00;1.33;;;;;;;15.44;59.87;96949.94;7003529;28;20706;-79
2022/09/27 01:58:31;;;;;;;1.30;1.30;;;;;;;15.75;58.71;96913.34;7001888;28;20226;-80
2022/09/27 02:01:53;;;;;;;1.20;1.20;;;;;;;15.47;60.43;96943.16;7001608;28;20222;-79
2022/09/27 02:05:17;;;;;;;1.67;1.20;;;;;;;16.02;58.53;96940.84;7002160;28;20198;-80
2022/09/27 02:08:41;;;;;;;1.23;1.23;;;;;;;15.87;59.58;96948.31;7000771;28;20225;-79
2022/09/27 02:12:05;;;;;;;3.13;1.60;;;;;;;15.68;58.94;96929.16;7000856;28;20202;-79
2022/09/27 02:15:27;;;;;;;2.93;1.27;;;;;;;15.75;59.07;96943.22;7000581;28;20229;-80
2022/09/27 02:18:55;;;;;;;1.90;1.20;;;;;;;15.61;59.37;96953.09;6999797;28;20279;-79
2022/09/27 02:22:24;;;;;;;1.13;1.13;;;;;;;15.87;58.63;96965.41;7001147;28;20198;-79
2022/09/27 02:25:50;;;;;;;1.20;1.20;;;;;;;15.58;60.97;96958.28;7001119;28;20192;-80
2022/09/27 02:29:16;;;;;;;1.57;1.40;;;;;;;15.65;60.54;96965.03;7000331;28;20226;-80
2022/09/27 02:32:38;;;;;;;1.13;1.03;;;;;;;15.52;61.11;96978.44;7001183;28;20195;-79
2022/09/27 02:36:00;;;;;;;1.70;1.50;;;;;;;15.76;59.68;96963.84;7002244;28;20232;-79
2022/09/27 02:39:23;;;;;;;1.20;1.20;;;;;;;15.42;62.07;96989.34;7001979;28;20728;-79
2022/09/27 02:42:46;;;;;;;1.50;1.47;;;;;;;15.76;61.20;96987.53;7002320;28;20202;-79
2022/09/27 02:46:19;;;;;;;1.47;1.40;;;;;;;15.28;62.87;96986.38;7004679;28;20198;-79
2022/09/27 02:49:58;;;;;;;1.70;1.30;;;;;;;15.14;63.50;96998.94;7005077;28;20291;-80
2022/09/27 02:53:29;;;;;;;1.70;1.60;;;;;;;15.47;62.92;96989.31;7002461;28;20562;-79
2022/09/27 02:57:01;;;;;;;2.27;1.43;;;;;;;15.37;62.08;96986.66;7002384;28;20210;-80
2022/09/27 03:00:25;;;;;;;1.60;1.50;;;;;;;14.95;63.91;96999.81;7001947;28;20186;-80
2022/09/27 03:03:50;;;;;;;1.73;1.50;;;;;;;15.19;62.29;96984.53;7001198;28;20225;-79
2022/09/27 03:07:13;;;;;;;2.50;1.57;;;;;;;15.21;62.53;96993.22;7001599;28;20222;-78
2022/09/27 03:10:35;;;;;;;1.50;1.37;;;;;;;15.16;63.40;97009.53;7004626;28;20199;-79
2022/09/27 03:13:57;;;;;;;2.87;1.30;;;;;;;15.46;61.70;96977.63;7007313;28;20849;-79
2022/09/27 03:17:19;;;;;;;1.50;1.40;;;;;;;15.36;61.70;97028.47;7007153;28;20222;-79
2022/09/27 03:20:41;;;;;;;1.40;1.20;;;;;;;14.89;61.40;97036.19;7001713;28;20201;-79
2022/09/27 03:24:03;;;;;;;1.40;1.30;;;;;;;15.29;59.56;97026.00;7007031;28;20201;-79
2022/09/27 03:27:24;;;;;;;1.30;1.20;;;;;;;15.51;59.10;97045.50;7006693;28;20218;-79
2022/09/27 03:30:48;;;;;;;1.63;1.27;;;;;;;15.19;59.11;97039.66;7006279;28;20205;-80
2022/09/27 03:34:09;;;;;;;1.67;1.53;;;;;;;15.06;58.71;97042.94;7006529;28;20217;-79
2022/09/27 03:37:31;;;;;;;2.77;1.50;;;;;;;15.14;58.75;97049.69;7006667;28;20223;-79
2022/09/27 03:40:52;;;;;;;2.70;1.57;;;;;;;14.96;58.32;97002.25;7006398;28;20667;-80
2022/09/27 03:44:14;;;;;;;1.67;1.57;;;;;;;15.22;58.94;97041.78;7006352;28;20826;-80
2022/09/27 03:47:40;;;;;;;4.57;1.70;;;;;;;15.28;58.59;97053.47;7005680;28;20230;-80
2022/09/27 03:51:03;;;;;;;2.70;1.57;;;;;;;15.22;58.43;97049.94;7006196;28;20187;-79
2022/09/27 03:54:24;;;;;;;1.47;1.37;;;;;;;15.11;58.85;97059.19;7006285;28;20352;-79
2022/09/27 03:57:47;;;;;;;3.10;1.50;;;;;;;15.29;58.39;97042.31;7006219;28;20228;-79
2022/09/27 04:01:08;;;;;;;2.30;1.63;;;;;;;14.88;58.59;97037.28;7005624;28;20213;-79
2022/09/27 04:04:31;;;;;;;2.30;1.50;;;;;;;15.10;57.50;97038.56;7005682;28;20202;-79
2022/09/27 04:07:53;;;;;;;2.10;1.73;;;;;;;15.15;58.71;97054.84;7004949;28;20237;-80
2022/09/27 04:11:15;;;;;;;2.77;1.70;;;;;;;14.68;59.63;97061.75;7005867;28;20205;-79
2022/09/27 04:14:36;;;;;;;3.63;1.90;;;;;;;14.42;58.30;96968.75;7006041;28;20230;-80
2022/09/27 04:17:58;;;;;;;3.40;2.20;;;;;;;14.88;58.95;97045.44;7004728;28;20230;-79
2022/09/27 04:21:21;;;;;;;4.13;2.00;;;;;;;14.87;58.67;97062.81;7004340;28;20203;-80
2022/09/27 04:24:43;;;;;;;2.57;1.77;;;;;;;14.93;58.88;97057.06;7005452;28;20613;-79
2022/09/27 04:28:05;;;;;;;3.60;2.03;;;;;;;14.80;58.82;97040.56;7004761;28;20237;-79
2022/09/27 04:31:26;;;;;;;1.97;1.63;;;;;;;15.43;57.91;97067.00;7005085;28;20300;-79
2022/09/27 04:38:28;;;;;;;5.17;2.03;;;;;;;15.28;58.61;97070.53;7002843;28;20589;-78
2022/09/27 04:41:50;;;;;;;6.77;2.30;;;;;;;15.20;59.00;97071.13;7005280;28;20688;-80
2022/09/27 04:45:12;;;;;;;3.67;2.10;;;;;;;15.27;57.87;97077.06;7009988;28;20205;-78
2022/09/27 04:48:34;;;;;;;4.97;2.30;;;;;;;15.10;58.43;97082.00;7005723;28;20223;-80
2022/09/27 04:51:56;;;;;;;6.40;2.70;;;;;;;15.36;57.98;97086.31;7004084;28;20210;-80
2022/09/27 04:55:19;;;;;;;3.53;2.07;;;;;;;15.52;57.37;97068.06;7004308;28;20223;-79
2022/09/27 04:58:41;;;;;;;2.90;1.97;;;;;;;15.46;57.51;97074.59;7006801;28;20590;-79
2022/09/27 05:02:03;;;;;;;4.47;2.30;;;;;;;15.41;57.26;97075.44;7002962;28;20220;-81
2022/09/27 05:05:24;;;;;;;2.70;2.17;;;;;;;15.28;57.44;97081.41;7005654;28;20207;-80
2022/09/27 05:08:46;;;;;;;2.80;2.07;;;;;;;15.00;58.10;97082.03;7002349;28;20792;-80
2022/09/27 05:12:10;;;;;;;4.57;2.53;;;;;;;15.55;57.36;97102.81;7004536;28;20199;-80
2022/09/27 05:15:31;;;;;;;8.90;2.23;;;;;;;15.16;57.98;97082.81;7005042;28;20227;-81
2022/09/27 05:18:53;;;;;;;5.00;3.03;;;;;;;15.45;57.64;97116.44;6978431;28;20223;-80
2022/09/27 05:22:14;;;;;;;2.93;1.90;;;;;;;15.30;58.32;97116.44;6994957;28;20210;-80
2022/09/27 05:25:36;;;;;;;3.60;2.20;;;;;;;14.73;59.51;97059.84;7005694;28;20208;-79
2022/09/27 05:28:59;;;;;;;4.23;2.57;;;;;;;14.97;60.30;97128.72;7006409;28;20222;-79
2022/09/27 05:32:21;;;;;;;4.47;2.70;;;;;;;14.61;60.63;97126.28;7006799;28;20206;-79
2022/09/27 05:35:43;;;;;;;3.70;2.10;;;;;;;14.51;61.20;97120.88;7006559;28;20229;-80
2022/09/27 05:39:05;;;;;;;6.40;2.50;;;;;;;14.57;61.55;97126.00;7014194;28;20251;-80
2022/09/27 05:42:27;;;;;;;5.37;2.30;;;;;;;14.86;60.79;97150.72;7018519;28;20685;-79
2022/09/27 05:45:51;;;;;;;4.20;2.20;;;;;;;14.79;61.38;97159.13;7006527;28;20209;-81
2022/09/27 05:49:13;;;;;;;5.10;2.97;;;;;;;14.95;61.24;97158.03;7004831;28;20230;-79
2022/09/27 05:52:34;;;;;;;7.53;2.93;;;;;;;14.60;62.21;97144.47;7004471;28;20372;-79
2022/09/27 05:55:56;;;;;;;6.17;3.10;;;;;;;14.89;61.91;97163.72;7005110;28;20237;-79
2022/09/27 05:59:18;;;;;;;5.47;3.00;;;;;;;15.15;61.74;97130.84;7005025;28;20234;-79
2022/09/27 06:02:42;;;;;;;3.50;2.43;;;;;;;15.25;61.23;97178.88;7002502;28;20221;-79
2022/09/27 06:06:05;;;;;;;5.03;2.60;;;;;;;14.88;61.59;97141.22;7003869;28;20203;-79
2022/09/27 06:09:27;;;;;;;6.20;2.70;;;;;;;15.01;61.27;97178.66;7004675;28;20227;-78
2022/09/27 06:12:49;;;;;;;4.70;2.23;;;;;;;15.23;61.39;97194.66;7003112;28;20203;-79
2022/09/27 06:16:11;;;;;;;5.77;2.60;;;;;;;14.83;60.75;97198.19;7003346;28;20239;-80
2022/09/27 06:19:35;;;;;;;3.23;2.43;;;;;;;14.86;61.84;97197.63;7003532;28;20219;-80
2022/09/27 06:23:03;;;;;;;3.53;2.33;;;;;;;14.89;61.76;97182.72;7003426;28;20278;-80
2022/09/27 06:26:26;;;;;;;3.47;2.70;;;;;;;15.24;60.04;97198.97;7005039;28;20191;-80
2022/09/27 06:29:48;;;;;;;3.73;2.33;;;;;;;14.93;60.46;97184.59;7018691;28;20217;-79
2022/09/27 06:33:12;;;;;;;4.67;2.40;;;;;;;14.94;61.78;97202.53;7004378;28;20225;-80
2022/09/27 06:36:35;;;;;;;3.53;2.20;;;;;;;14.69;62.45;97207.13;7003967;28;20637;-79
2022/09/27 06:39:57;;;;;;;4.47;2.47;;;;;;;14.65;62.49;97200.59;7003336;28;20234;-79
2022/09/27 06:43:20;;;;;;;2.10;2.00;;;;;;;15.13;61.16;97219.91;6989565;28;20197;-80
2022/09/27 06:46:41;;;;;;;2.23;2.00;;;;;;;15.01;60.92;97177.81;7009656;28;20212;-79
2022/09/27 06:50:05;;;;;;;3.10;2.53;;;;;;;14.90;60.88;97225.88;7009348;28;20202;-80
2022/09/27 06:53:28;;;;;;;4.17;1.70;;;;;;;15.18;60.60;97216.38;6990968;28;20573;-80
2022/09/27 06:56:50;;;;;;;1.70;1.60;;;;;;;15.52;59.86;97223.69;6982401;28;20230;-80
2022/09/27 07:00:25;;;;;;;2.00;1.80;;;;;;;15.59;58.85;97228.84;6982170;28;20199;-80
2022/09/27 07:03:50;;;;;;;2.07;1.87;;;;;;;15.60;59.08;97241.31;7000977;28;20227;-80
2022/09/27 07:07:12;;;;;;;1.67;1.57;;;;;;;14.75;59.34;97244.84;7009742;28;20233;-80
2022/09/27 07:10:36;;;;;;;1.70;1.60;;;;;;;14.66;59.54;97260.03;7008566;28;20204;-79
2022/09/27 07:13:58;;;;;;;2.20;1.50;;;;;;;14.13;59.46;97254.94;7009850;28;20209;-80
2022/09/27 07:17:19;;;;;;;1.20;1.20;;;;;;;14.48;59.59;97254.28;7011042;28;20884;-80
2022/09/27 07:20:41;;;;;;;1.53;1.43;;;;;;;15.05;57.59;97249.50;7004850;28;20202;-80
2022/09/27 07:24:03;;;;;;;1.57;1.30;;;;;;;14.63;58.19;97273.31;7008076;28;20207;-80
2022/09/27 07:27:26;;;;;;;1.80;1.70;;;;;;;14.50;59.48;97254.81;7008044;28;20222;-81
2022/09/27 07:30:47;;;;;;;1.17;1.10;;;;;;;15.25;57.59;97254.91;7007573;28;20192;-79
2022/09/27 07:34:11;;;;;;;1.33;1.23;;;;;;;15.18;58.88;97273.38;7007074;28;20206;-80
2022/09/27 07:37:33;;;;;;;2.00;1.77;;;;;;;15.36;58.30;97279.13;7006034;28;20277;-79
2022/09/27 07:40:54;;;;;;;1.37;1.27;;;;;;;14.85;58.64;97277.41;7007676;28;20208;-80
2022/09/27 07:44:17;;;;;;;1.50;1.23;;;;;;;15.26;58.09;97292.66;7006380;28;20203;-80
2022/09/27 07:47:39;;;;;;;1.57;1.47;;;;;;;14.75;59.82;97296.38;7006930;28;20226;-80
2022/09/27 07:51:01;;;;;;;1.10;1.10;;;;;;;14.68;59.37;97284.97;7007990;28;20218;-80
2022/09/27 07:54:23;;;;;;;3.93;1.30;;;;;;;15.49;58.94;97304.91;7007506;28;20598;-79
2022/09/27 07:57:45;;;;;;;1.40;1.30;;;;;;;14.96;59.25;97303.50;7005709;28;20246;-79
2022/09/27 08:01:08;;;;;;;1.43;1.40;;;;;;;15.05;59.80;97314.63;7007563;28;20203;-80
2022/09/27 08:04:29;;;;;;;2.70;1.73;;;;;;;15.43;59.14;97320.38;7008390;28;20199;-82
2022/09/27 08:07:55;;;;;;;1.43;1.33;;;;;;;16.06;57.63;97308.91;7006097;28;20225;-81
2022/09/27 08:11:18;;;;;;;2.43;1.70;;;;;;;15.75;57.13;97326.34;7006194;28;20228;-81
2022/09/27 08:14:40;;;;;;;3.00;1.70;;;;;;;16.03;57.53;97325.75;7007591;28;20198;-83
2022/09/27 08:18:03;;;;;;;2.43;1.43;;;;;;;15.98;57.46;97328.47;7007738;28;20233;-81
2022/09/27 08:21:25;;;;;;;1.70;1.50;;;;;;;15.93;55.26;97325.78;7006364;28;20219;-83
2022/09/27 08:24:47;;;;;;;1.40;1.40;;;;;;;15.50;55.92;97330.97;7006922;28;20210;-81
2022/09/27 08:28:09;;;;;;;2.07;1.60;;;;;;;15.77;55.22;97290.75;7006971;28;20222;-81
2022/09/27 08:31:31;;;;;;;1.50;1.40;;;;;;;15.10;56.37;97329.00;7007414;28;20564;-80
2022/09/27 08:34:54;;;;;;;1.60;1.50;;;;;;;15.65;56.14;97344.56;7007537;28;20207;-81
2022/09/27 08:38:15;;;;;;;2.27;1.60;;;;;;;15.53;55.17;97344.84;7003868;28;20260;-81
2022/09/27 08:41:38;;;;;;;2.97;1.50;;;;;;;15.67;55.30;97348.63;7007445;28;20214;-81
2022/09/27 08:45:04;;;;;;;2.33;1.40;;;;;;;15.95;53.51;97375.25;7007062;28;20211;-82
2022/09/27 08:48:27;;;;;;;2.03;1.53;;;;;;;15.44;53.67;97373.63;7007282;28;20222;-82
2022/09/27 08:51:52;;;;;;;2.53;1.83;;;;;;;16.04;52.87;97367.38;7007286;28;20204;-81
2022/09/27 08:55:28;;;;;;;1.97;1.50;;;;;;;16.02;53.24;97336.91;7006910;28;20231;-82
2022/09/27 08:58:52;;;;;;;1.27;1.13;;;;;;;15.75;53.10;97364.38;7006666;28;20226;-82
2022/09/27 09:02:17;;;;;;;1.07;1.03;;;;;;;15.58;53.54;97335.88;7006190;28;20226;-81
2022/09/27 09:05:39;;;;;;;1.50;1.40;;;;;;;15.81;52.29;97363.28;7008662;28;20194;-83
2022/09/27 09:09:11;;;;;;;2.07;1.60;;;;;;;15.54;54.21;97353.78;7007779;28;20223;-82
2022/09/27 09:12:46;;;;;;;3.80;1.43;;;;;;;15.56;53.36;97360.59;7008405;28;20202;-82
2022/09/27 09:16:14;;;;;;;1.80;1.70;;;;;;;15.47;52.54;97350.53;7013983;28;20215;-83
2022/09/27 09:19:47;;;;;;;1.73;1.43;;;;;;;16.54;52.70;97354.47;7009243;28;20227;-83
2022/09/27 09:23:26;;;;;;;2.07;1.50;;;;;;;16.98;51.35;97343.66;6986088;28;20657;-82
2022/09/27 09:26:55;;;;;;;1.80;1.40;;;;;;;16.64;51.49;97354.41;7003569;28;20219;-80
2022/09/27 09:30:20;;;;;;;2.80;1.40;;;;;;;16.67;50.40;97361.22;7010637;28;20188;-82
2022/09/27 09:33:46;;;;;;;2.03;1.47;;;;;;;16.43;51.79;97365.66;6999427;28;20200;-83
2022/09/27 09:37:12;;;;;;;1.20;1.20;;;;;;;16.05;52.33;97352.69;7001452;28;20222;-82
2022/09/27 09:40:39;;;;;;;2.17;1.33;;;;;;;16.62;51.54;97359.34;7009648;28;20206;-82
2022/09/27 09:44:05;;;;;;;1.77;1.63;;;;;;;16.99;50.80;97367.84;7012012;28;20206;-82
2022/09/27 09:47:30;;;;;;;2.03;1.83;;;;;;;17.02;50.98;97372.75;7011827;28;20225;-82
2022/09/27 09:50:54;;;;;;;2.07;1.43;;;;;;;17.04;48.63;97367.03;7008362;28;20203;-82
2022/09/27 09:54:25;;;;;;;1.40;1.30;;;;;;;17.15;47.41;97363.97;7003978;28;20206;-82
2022/09/27 09:57:56;;;;;;;1.83;1.10;;;;;;;17.03;46.98;97327.25;7041930;28;20227;-82
2022/09/27 10:01:21;;;;;;;1.20;1.20;;;;;;;17.26;46.68;97348.38;7034940;28;20223;-81
2022/09/27 10:04:42;;;;;;;1.50;1.40;;;;;;;18.02;46.06;97325.69;7035098;28;20204;-83
2022/09/27 10:08:06;;;;;;;2.50;1.50;;;;;;;18.48;43.38;97339.69;7034462;28;20585;-83
2022/09/27 10:11:32;;;;;;;2.17;1.50;;;;;;;18.39;45.22;97320.41;7034983;28;20216;-84
2022/09/27 10:14:55;;;;;;;4.40;1.63;;;;;;;18.50;41.86;97300.06;7035570;28;20212;-83
2022/09/27 10:18:19;;;;;;;3.40;1.50;;;;;;;17.96;43.39;97313.22;7032750;28;20233;-83
2022/09/27 10:21:44;;;;;;;1.50;1.40;;;;;;;18.39;44.09;97298.56;7015412;28;20787;-83
2022/09/27 10:25:07;;;;;;;2.63;1.73;;;;;;;20.31;40.75;97298.88;7005883;28;20207;-83
2022/09/27 10:28:32;;;;;;;2.93;1.43;;;;;;;19.92;39.84;97316.84;7003927;28;20225;-81
2022/09/27 10:31:54;;;;;;;3.00;1.73;;;;;;;19.95;39.86;97328.00;7004375;28;20664;-82
2022/09/27 10:35:22;;;;;;;2.10;1.50;;;;;;;19.52;39.71;97307.38;7004842;28;20212;-83
2022/09/27 10:38:52;;;;;;;4.03;1.70;;;;;;;18.70;39.72;97304.47;7010863;28;20236;-83
2022/09/27 10:42:21;;;;;;;1.80;1.40;;;;;;;18.75;40.56;97331.72;7004811;28;20196;-84
2022/09/27 10:45:42;;;;;;;3.40;1.80;;;;;;;18.32;40.19;97321.84;6982110;28;20208;-83
2022/09/27 10:49:21;;;;;;;1.40;1.30;;;;;;;17.60;41.86;97311.91;6987955;28;20225;-84
2022/09/27 10:52:44;;;;;;;1.60;1.50;;;;;;;17.57;42.99;97336.19;7005710;28;20658;-82
2022/09/27 10:56:07;;;;;;;2.20;1.57;;;;;;;17.54;43.02;97329.41;7006265;28;20232;-84
2022/09/27 10:59:30;;;;;;;1.83;1.30;;;;;;;17.15;45.45;97286.91;7006757;28;20271;-84
2022/09/27 11:02:53;;;;;;;1.53;1.23;;;;;;;18.08;43.78;97315.53;7004385;28;20270;-85
2022/09/27 11:06:30;;;;;;;1.40;1.17;;;;;;;18.21;44.35;97307.47;7006653;28;20797;-84
2022/09/27 11:09:58;;;;;;;3.03;1.50;;;;;;;18.22;42.03;97273.63;7006098;28;20217;-84
2022/09/27 11:13:20;;;;;;;3.17;1.70;;;;;;;18.38;42.50;97274.28;7006569;28;20208;-85
2022/09/27 11:16:48;;;;;;;1.50;1.40;;;;;;;18.04;41.52;97281.78;7005928;28;20222;-84
2022/09/27 11:20:17;;;;;;;6.67;1.63;;;;;;;17.51;42.89;97293.75;7000998;28;20199;-84
2022/09/27 11:23:51;;;;;;;3.77;1.83;;;;;;;17.97;42.03;97290.28;7007348;28;20196;-85
2022/09/27 11:27:24;;;;;;;3.63;1.53;;;;;;;17.94;42.24;97293.59;7006721;28;20621;-84
2022/09/27 11:30:50;;;;;;;1.67;1.50;;;;;;;17.99;43.79;97282.63;7007176;28;20661;-84
2022/09/27 11:34:36;;;;;;;4.10;1.60;;;;;;;17.86;43.36;97252.53;7010791;28;20216;-84
2022/09/27 11:38:06;;;;;;;2.17;1.70;;;;;;;17.73;44.03;97270.34;7000912;28;20602;-83
2022/09/27 11:41:44;;;;;;;1.90;1.50;;;;;;;17.93;43.28;97278.31;6981982;28;20198;-82
2022/09/27 11:45:31;;;;;;;2.63;1.70;;;;;;;17.21;43.92;97262.06;7004573;28;20211;-82
2022/09/27 11:49:07;;;;;;;1.50;1.40;;;;;;;17.52;43.00;97252.56;7008752;28;20217;-82
2022/09/27 11:52:39;;;;;;;2.60;1.50;;;;;;;17.39;43.80;97257.88;7009229;28;20674;-82
2022/09/27 11:56:07;;;;;;;1.60;1.50;;;;;;;17.79;42.65;97260.19;7009952;28;20200;-81
2022/09/27 11:59:48;;;;;;;2.00;1.40;;;;;;;17.95;41.83;97256.22;7008912;28;20221;-83
2022/09/27 12:03:41;;;;;;;2.03;1.83;;;;;;;17.89;43.00;97268.28;7008494;28;20272;-83
2022/09/27 12:07:07;;;;;;;3.90;2.23;;;;;;;18.06;42.38;97265.94;6996106;28;20229;-82
2022/09/27 12:10:29;;;;;;;1.60;1.50;;;;;;;17.78;42.66;97255.84;7008992;28;20290;-82
2022/09/27 12:13:55;;;;;;;1.70;1.60;;;;;;;17.49;44.14;97304.09;7009988;28;20288;-82
2022/09/27 12:17:20;;;;;;;1.43;1.10;;;;;;;16.90;44.05;97326.00;7009507;28;20304;-82
2022/09/27 12:20:44;;;;;;;1.47;1.17;;;;;;;15.14;49.75;97330.13;7010243;28;20197;-82
2022/09/27 12:24:06;;;;;;;1.60;1.50;;;;;;;15.17;52.95;97326.84;7009960;28;20342;-82
2022/09/27 12:27:35;;;;;;;1.50;1.40;;;;;;;15.13;54.90;97331.19;7009206;28;20268;-82
2022/09/27 12:31:03;;;;;;;1.70;1.60;;;;;;;14.34;56.56;97286.47;6984403;28;20246;-81
2022/09/27 12:34:32;;;;;;;1.60;1.50;;;;;;;14.51;57.00;97335.09;6980494;28;20242;-82
2022/09/27 12:37:58;;;;;;;2.50;1.77;;;;;;;14.74;57.33;97343.59;6979727;28;20237;-81
2022/09/27 12:41:23;;;;;;;3.77;2.07;;;;;;;14.63;58.06;97305.84;6978946;28;20226;-81
2022/09/27 12:44:44;;;;;;;1.83;1.70;;;;;;;14.72;58.49;97312.38;6979166;28;20675;-81
2022/09/27 12:48:12;;;;;;;2.70;2.20;;;;;;;15.00;58.25;97344.47;6979344;28;20274;-81
2022/09/27 12:51:36;;;;;;;1.80;1.70;;;;;;;14.80;59.18;97339.00;6979388;28;20289;-81
2022/09/27 12:55:26;;;;;;;1.83;1.50;;;;;;;14.63;57.76;97341.13;6980006;28;20960;-82
2022/09/27 12:59:10;;;;;;;3.33;1.80;;;;;;;14.69;58.27;97294.72;6979045;28;20233;-81
2022/09/27 13:02:57;;;;;;;1.40;1.40;;;;;;;15.08;57.75;97324.94;6978190;28;20217;-81
2022/09/27 13:06:34;;;;;;;2.40;1.60;;;;;;;15.15;58.45;97325.50;6980119;28;20230;-82
2022/09/27 13:10:29;;;;;;;2.20;1.50;;;;;;;15.34;58.30;97323.91;6978744;28;20342;-81
2022/09/27 13:13:55;;;;;;;1.50;1.40;;;;;;;15.68;56.15;97314.94;6945997;28;20229;-81
2022/09/27 13:17:48;;;;;;;1.50;1.40;;;;;;;15.76;56.73;97278.25;6979036;28;20365;-82
2022/09/27 13:21:09;;;;;;;1.27;1.27;;;;;;;16.03;57.71;97306.72;6979167;28;20280;-82
2022/09/27 13:24:42;;;;;;;1.30;1.27;;;;;;;16.71;54.64;97292.34;6979960;28;20281;-82
2022/09/27 13:28:36;;;;;;;1.40;1.40;;;;;;;16.34;54.38;97285.69;6978482;28;20227;-81
2022/09/27 13:32:19;;;;;;;4.27;3.03;;;;;;;16.12;53.72;97291.50;6979572;28;20206;-81
2022/09/27 13:35:40;;;;;;;11.50;8.37;;;;;;;16.52;55.01;97279.66;6979387;28;20687;-82
2022/09/27 13:39:06;;;;;;;1.60;1.50;;;;;;;16.07;54.62;97296.94;6979231;28;20319;-81
2022/09/27 13:42:32;;;;;;;1.50;1.40;;;;;;;15.82;55.55;97291.53;6979600;28;20219;-82
2022/09/27 13:45:57;;;;;;;1.33;1.23;;;;;;;15.28;56.00;97265.25;6980817;28;20207;-82
2022/09/27 13:49:21;;;;;;;3.53;2.60;;;;;;;15.57;57.70;97293.50;6982673;28;20250;-81
2022/09/27 13:52:43;;;;;;;3.53;2.80;;;;;;;15.53;58.68;97282.38;6978285;28;20345;-82
2022/09/27 13:56:06;;;;;;;15.73;10.57;;;;;;;15.79;58.49;97318.44;6976801;28;20212;-81
2022/09/27 13:59:33;;;;;;;13.93;12.63;;;;;;;15.49;58.94;97316.59;6977706;28;20294;-81
2022/09/27 14:03:01;;;;;;;6.00;5.50;;;;;;;15.23;60.15;97300.53;6976420;28;20300;-81
2022/09/27 14:06:26;;;;;;;14.60;13.17;;;;;;;15.31;59.85;97300.81;6977572;28;20305;-82
2022/09/27 14:09:51;;;;;;;2.10;2.00;;;;;;;15.19;59.22;97281.25;6977346;28;20215;-81
2022/09/27 14:13:18;;;;;;;1.60;1.50;;;;;;;15.27;58.37;97294.28;6977508;28;20665;-82
2022/09/27 14:16:45;;;;;;;2.30;1.70;;;;;;;15.20;58.58;97291.03;6977411;28;20202;-81
2022/09/27 14:20:31;;;;;;;1.90;1.80;;;;;;;14.77;60.29;97290.69;6976800;28;20195;-81
2022/09/27 14:23:53;;;;;;;1.60;1.50;;;;;;;14.21;61.63;97261.78;6977236;28;20203;-81
2022/09/27 14:27:17;;;;;;;2.17;1.50;;;;;;;14.18;62.00;97278.53;6977175;28;20229;-81
2022/09/27 14:30:39;;;;;;;3.23;2.00;;;;;;;14.14;61.73;97258.44;6978366;28;20239;-82
2022/09/27 14:34:07;;;;;;;6.83;6.17;;;;;;;14.57;61.96;97288.72;6977182;28;20653;-81
2022/09/27 14:37:30;;;;;;;3.43;2.67;;;;;;;14.93;61.37;97309.44;6977361;28;20244;-82
2022/09/27 14:40:58;;;;;;;2.70;2.50;;;;;;;14.76;61.08;97262.72;6977477;28;20799;-81
2022/09/27 14:44:21;;;;;;;3.90;2.53;;;;;;;14.73;61.98;97312.13;6977152;28;20232;-82
2022/09/27 14:47:46;;;;;;;2.30;2.10;;;;;;;14.78;62.21;97295.84;6976322;28;20233;-81
2022/09/27 14:51:19;;;;;;;3.47;2.80;;;;;;;15.37;60.75;97315.22;6977511;28;20269;-81
2022/09/27 14:54:42;;;;;;;3.50;2.23;;;;;;;15.66;59.69;97297.28;6976368;28;20288;-81
2022/09/27 14:58:04;;;;;;;2.20;1.90;;;;;;;16.05;57.38;97298.31;6980026;28;20253;-81
2022/09/27 15:01:26;;;;;;;1.90;1.60;;;;;;;16.05;57.48;97271.91;6975553;28;20221;-81
2022/09/27 15:04:50;;;;;;;2.30;2.10;;;;;;;15.47;57.26;97302.47;6977205;28;20214;-82
2022/09/27 15:08:14;;;;;;;1.70;1.60;;;;;;;15.23;57.95;97267.94;6982025;28;20229;-81
2022/09/27 15:11:40;;;;;;;2.37;1.90;;;;;;;14.70;59.91;97279.28;6982762;28;20211;-82
2022/09/27 15:15:02;;;;;;;1.60;1.50;;;;;;;14.64;60.62;97288.50;6982409;28;20198;-81
2022/09/27 15:18:31;;;;;;;1.43;1.40;;;;;;;15.60;57.82;97287.50;6981944;28;20322;-81
2022/09/27 15:21:53;;;;;;;2.30;2.13;;;;;;;14.51;59.40;97272.72;6982973;28;20184;-81
2022/09/27 15:25:18;;;;;;;2.70;2.33;;;;;;;14.62;60.06;97283.31;6983420;28;20202;-82
2022/09/27 15:28:44;;;;;;;2.20;1.80;;;;;;;14.94;59.26;97289.38;6982347;28;20226;-82
2022/09/27 15:32:07;;;;;;;1.97;1.63;;;;;;;15.11;58.91;97265.50;6982749;28;20197;-82
2022/09/27 15:35:32;;;;;;;1.70;1.60;;;;;;;15.76;58.22;97300.78;6982427;28;20241;-82
2022/09/27 15:39:06;;;;;;;2.57;2.03;;;;;;;15.29;59.47;97297.53;6983390;28;20227;-82
2022/09/27 15:42:28;;;;;;;2.60;2.40;;;;;;;14.92;59.21;97223.69;6983866;28;20269;-82
2022/09/27 15:45:52;;;;;;;2.83;2.60;;;;;;;15.25;60.03;97306.50;6984051;28;20241;-83
2022/09/27 15:49:22;;;;;;;3.63;2.73;;;;;;;15.76;59.92;97316.31;6980676;28;20708;-83
2022/09/27 15:52:46;;;;;;;3.80;3.00;;;;;;;15.62;59.09;97317.94;6981437;28;20665;-82
2022/09/27 15:56:07;;;;;;;3.30;2.73;;;;;;;15.88;58.54;97316.81;6980827;28;20201;-82
2022/09/27 15:59:30;;;;;;;2.73;2.53;;;;;;;16.17;58.99;97312.41;6980394;28;20282;-83
2022/09/27 16:02:53;;;;;;;3.17;2.70;;;;;;;16.24;58.27;97304.75;6979587;28;20296;-82
2022/09/27 16:06:15;;;;;;;4.67;2.50;;;;;;;16.07;58.97;97302.38;6981124;28;20222;-82
2022/09/27 16:09:37;;;;;;;2.80;2.60;;;;;;;16.27;58.28;97306.94;6979533;28;20265;-83
2022/09/27 16:12:58;;;;;;;5.23;2.83;;;;;;;16.26;58.54;97316.16;6980662;28;20256;-82